Terminal Aerodrome Forecast
Issued by NWS

Home | Current Version | Previous Version | Text Only | Print | Product List | Glossary On
Versions: 1 2 3 4 5 6 7 8 9 10 11 12 13
000
FTUS44 KOUN 271126
TAFGAG
TAF
KGAG 271126Z 2712/2812 VRB05KT P6SM FEW080 SCT250
      TEMPO 2712/2714 5SM BR
     FM271500 14008KT P6SM SCT100 SCT250=

USA.gov is the U.S. government's official web portal to all federal, state and local government web resources and services.